Crete, Illinois
Current Conditions -  °F | °C
As of 11:55 AM on Friday 21 Nov 2014 (Local Time) from KIGQ Reporting Station
Clear Clear  
Wind Chill: 23°   Ceiling: Unl
Heat Index: 30°   Visibility: 10mi
Dew Point:   Wind: 8mph
Humidity: 37%   Direction: 170°S
Pressure: 30.43"   Gusts: NA
Location:  41.44°N, 87.63°W
Report Text: KIGQ 211755Z AUTO 17007KT 10SM CLR M01/M14 A3043 RMK AO2 T10091141 11008 21135
Loading
Personal Weather Stations






























Interactive Weather Map New forecast layout! Learn more

10-Day Weather Forecast

Advertisements
Track Severe Weather on mobile